<?xml version="1.0" encoding="UTF-8" standalone="no" ?>
<gpx xmlns="http://www.topografix.com/GPX/1/1" xmlns:xsi="http://www.w3.org/2001/XMLSchema-instance" xsi:schemaLocation="http://www.topografix.com/GPX/1/1 http://www.topografix.com/GPX/1/1/gpx.xsd" version="1.1" creator="VisuGPX - https://www.visugpx.com">
  <metadata>
    <name>Limerzel_Templiers_Trevolo_20+-22km</name>
    <desc><![CDATA[gnerando idor:8319516_9686623_9744769]]></desc>
  </metadata>
  <trk>
    <name><![CDATA[Limerzel_SillonTrevelo_20km-9744769]]></name>
    <extensions>
      <line xmlns="http://www.topografix.com/GPX/gpx_style/0/2">
        <color>FF0000</color>
        <width>4</width>
      </line>
    </extensions>
    <trkseg>
      <trkpt lat="47.63603" lon="-2.35371">
        <ele>63</ele>
        <time>2023-11-05T10:43:19Z</time>
      </trkpt>
      <trkpt lat="47.63594" lon="-2.35397">
        <ele>63</ele>
        <time>2023-11-05T10:43:45Z</time>
      </trkpt>
      <trkpt lat="47.63556" lon="-2.35411">
        <ele>61</ele>
        <time>2023-11-05T10:44:38Z</time>
      </trkpt>
      <trkpt lat="47.63548" lon="-2.35468">
        <ele>59</ele>
        <time>2023-11-05T10:45:30Z</time>
      </trkpt>
      <trkpt lat="47.63558" lon="-2.35493">
        <ele>59</ele>
        <time>2023-11-05T10:45:56Z</time>
      </trkpt>
      <trkpt lat="47.63565" lon="-2.35524">
        <ele>59</ele>
        <time>2023-11-05T10:46:25Z</time>
      </trkpt>
      <trkpt lat="47.63565" lon="-2.35554">
        <ele>59</ele>
        <time>2023-11-05T10:46:52Z</time>
      </trkpt>
      <trkpt lat="47.6356" lon="-2.35612">
        <ele>57</ele>
        <time>2023-11-05T10:47:45Z</time>
      </trkpt>
      <trkpt lat="47.6355" lon="-2.35639">
        <ele>55</ele>
        <time>2023-11-05T10:48:13Z</time>
      </trkpt>
      <trkpt lat="47.63537" lon="-2.35664">
        <ele>54</ele>
        <time>2023-11-05T10:48:41Z</time>
      </trkpt>
      <trkpt lat="47.63532" lon="-2.35697">
        <ele>52</ele>
        <time>2023-11-05T10:49:12Z</time>
      </trkpt>
      <trkpt lat="47.63536" lon="-2.35762">
        <ele>49</ele>
        <time>2023-11-05T10:50:10Z</time>
      </trkpt>
      <trkpt lat="47.63532" lon="-2.35791">
        <ele>47</ele>
        <time>2023-11-05T10:50:37Z</time>
      </trkpt>
      <trkpt lat="47.63534" lon="-2.35819">
        <ele>45</ele>
        <time>2023-11-05T10:51:02Z</time>
      </trkpt>
      <trkpt lat="47.63533" lon="-2.35853">
        <ele>43</ele>
        <time>2023-11-05T10:51:33Z</time>
      </trkpt>
      <trkpt lat="47.63548" lon="-2.35873">
        <ele>43</ele>
        <time>2023-11-05T10:52:00Z</time>
      </trkpt>
      <trkpt lat="47.63589" lon="-2.3588">
        <ele>45</ele>
        <time>2023-11-05T10:52:55Z</time>
      </trkpt>
      <trkpt lat="47.63608" lon="-2.35893">
        <ele>48</ele>
        <time>2023-11-05T10:53:23Z</time>
      </trkpt>
      <trkpt lat="47.63622" lon="-2.35913">
        <ele>49</ele>
        <time>2023-11-05T10:53:49Z</time>
      </trkpt>
      <trkpt lat="47.63619" lon="-2.35941">
        <ele>50</ele>
        <time>2023-11-05T10:54:14Z</time>
      </trkpt>
      <trkpt lat="47.63583" lon="-2.35969">
        <ele>47</ele>
        <time>2023-11-05T10:55:08Z</time>
      </trkpt>
      <trkpt lat="47.63564" lon="-2.35978">
        <ele>46</ele>
        <time>2023-11-05T10:55:35Z</time>
      </trkpt>
      <trkpt lat="47.63489" lon="-2.36024">
        <ele>40</ele>
        <time>2023-11-05T10:57:23Z</time>
      </trkpt>
      <trkpt lat="47.63439" lon="-2.36083">
        <ele>39</ele>
        <time>2023-11-05T10:58:48Z</time>
      </trkpt>
      <trkpt lat="47.63397" lon="-2.36145">
        <ele>39</ele>
        <time>2023-11-05T11:00:08Z</time>
      </trkpt>
      <trkpt lat="47.63385" lon="-2.36169">
        <ele>39</ele>
        <time>2023-11-05T11:00:34Z</time>
      </trkpt>
      <trkpt lat="47.6335" lon="-2.36246">
        <ele>40</ele>
        <time>2023-11-05T11:01:58Z</time>
      </trkpt>
      <trkpt lat="47.63333" lon="-2.36304">
        <ele>40</ele>
        <time>2023-11-05T11:02:55Z</time>
      </trkpt>
      <trkpt lat="47.6328" lon="-2.36583">
        <ele>32</ele>
        <time>2023-11-05T11:07:15Z</time>
      </trkpt>
      <trkpt lat="47.63266" lon="-2.36634">
        <ele>30</ele>
        <time>2023-11-05T11:08:05Z</time>
      </trkpt>
      <trkpt lat="47.63256" lon="-2.3666">
        <ele>29</ele>
        <time>2023-11-05T11:08:32Z</time>
      </trkpt>
      <trkpt lat="47.63237" lon="-2.36685">
        <ele>28</ele>
        <time>2023-11-05T11:09:06Z</time>
      </trkpt>
      <trkpt lat="47.63222" lon="-2.36714">
        <ele>28</ele>
        <time>2023-11-05T11:09:39Z</time>
      </trkpt>
      <trkpt lat="47.6319" lon="-2.36756">
        <ele>26</ele>
        <time>2023-11-05T11:10:36Z</time>
      </trkpt>
      <trkpt lat="47.63179" lon="-2.36779">
        <ele>25</ele>
        <time>2023-11-05T11:11:01Z</time>
      </trkpt>
      <trkpt lat="47.63158" lon="-2.36834">
        <ele>25</ele>
        <time>2023-11-05T11:11:58Z</time>
      </trkpt>
      <trkpt lat="47.63141" lon="-2.36898">
        <ele>28</ele>
        <time>2023-11-05T11:13:00Z</time>
      </trkpt>
      <trkpt lat="47.63135" lon="-2.36933">
        <ele>28</ele>
        <time>2023-11-05T11:13:32Z</time>
      </trkpt>
      <trkpt lat="47.63126" lon="-2.36958">
        <ele>28</ele>
        <time>2023-11-05T11:13:58Z</time>
      </trkpt>
      <trkpt lat="47.63103" lon="-2.36963">
        <ele>27</ele>
        <time>2023-11-05T11:14:29Z</time>
      </trkpt>
      <trkpt lat="47.63086" lon="-2.36956">
        <ele>28</ele>
        <time>2023-11-05T11:14:52Z</time>
      </trkpt>
      <trkpt lat="47.63079" lon="-2.36897">
        <ele>31</ele>
        <time>2023-11-05T11:15:46Z</time>
      </trkpt>
      <trkpt lat="47.63087" lon="-2.36871">
        <ele>31</ele>
        <time>2023-11-05T11:16:12Z</time>
      </trkpt>
      <trkpt lat="47.6309" lon="-2.36844">
        <ele>31</ele>
        <time>2023-11-05T11:16:36Z</time>
      </trkpt>
      <trkpt lat="47.6309" lon="-2.36813">
        <ele>31</ele>
        <time>2023-11-05T11:17:04Z</time>
      </trkpt>
      <trkpt lat="47.63085" lon="-2.36724">
        <ele>28</ele>
        <time>2023-11-05T11:18:25Z</time>
      </trkpt>
      <trkpt lat="47.6308" lon="-2.36696">
        <ele>26</ele>
        <time>2023-11-05T11:18:51Z</time>
      </trkpt>
      <trkpt lat="47.63078" lon="-2.36664">
        <ele>25</ele>
        <time>2023-11-05T11:19:20Z</time>
      </trkpt>
      <trkpt lat="47.63055" lon="-2.36581">
        <ele>25</ele>
        <time>2023-11-05T11:20:40Z</time>
      </trkpt>
      <trkpt lat="47.63053" lon="-2.36554">
        <ele>24</ele>
        <time>2023-11-05T11:21:05Z</time>
      </trkpt>
      <trkpt lat="47.63044" lon="-2.36529">
        <ele>25</ele>
        <time>2023-11-05T11:21:30Z</time>
      </trkpt>
      <trkpt lat="47.63018" lon="-2.36477">
        <ele>27</ele>
        <time>2023-11-05T11:22:28Z</time>
      </trkpt>
      <trkpt lat="47.63011" lon="-2.36451">
        <ele>26</ele>
        <time>2023-11-05T11:22:54Z</time>
      </trkpt>
      <trkpt lat="47.62999" lon="-2.36431">
        <ele>26</ele>
        <time>2023-11-05T11:23:18Z</time>
      </trkpt>
      <trkpt lat="47.62981" lon="-2.36426">
        <ele>29</ele>
        <time>2023-11-05T11:23:42Z</time>
      </trkpt>
      <trkpt lat="47.62961" lon="-2.36425">
        <ele>32</ele>
        <time>2023-11-05T11:24:09Z</time>
      </trkpt>
      <trkpt lat="47.62901" lon="-2.36428">
        <ele>38</ele>
        <time>2023-11-05T11:25:29Z</time>
      </trkpt>
      <trkpt lat="47.62879" lon="-2.36434">
        <ele>39</ele>
        <time>2023-11-05T11:25:59Z</time>
      </trkpt>
      <trkpt lat="47.62836" lon="-2.36433">
        <ele>40</ele>
        <time>2023-11-05T11:26:56Z</time>
      </trkpt>
      <trkpt lat="47.62817" lon="-2.36429">
        <ele>41</ele>
        <time>2023-11-05T11:27:22Z</time>
      </trkpt>
      <trkpt lat="47.62795" lon="-2.3643">
        <ele>43</ele>
        <time>2023-11-05T11:27:51Z</time>
      </trkpt>
      <trkpt lat="47.62756" lon="-2.36438">
        <ele>45</ele>
        <time>2023-11-05T11:28:44Z</time>
      </trkpt>
      <trkpt lat="47.62712" lon="-2.36452">
        <ele>48</ele>
        <time>2023-11-05T11:29:44Z</time>
      </trkpt>
      <trkpt lat="47.6267" lon="-2.36461">
        <ele>50</ele>
        <time>2023-11-05T11:30:40Z</time>
      </trkpt>
      <trkpt lat="47.62613" lon="-2.36494">
        <ele>55</ele>
        <time>2023-11-05T11:32:02Z</time>
      </trkpt>
      <trkpt lat="47.62571" lon="-2.36495">
        <ele>58</ele>
        <time>2023-11-05T11:32:58Z</time>
      </trkpt>
      <trkpt lat="47.62552" lon="-2.36502">
        <ele>59</ele>
        <time>2023-11-05T11:33:24Z</time>
      </trkpt>
      <trkpt lat="47.6251" lon="-2.36505">
        <ele>61</ele>
        <time>2023-11-05T11:34:20Z</time>
      </trkpt>
      <trkpt lat="47.62471" lon="-2.36521">
        <ele>61</ele>
        <time>2023-11-05T11:35:14Z</time>
      </trkpt>
      <trkpt lat="47.62452" lon="-2.36534">
        <ele>62</ele>
        <time>2023-11-05T11:35:42Z</time>
      </trkpt>
      <trkpt lat="47.6243" lon="-2.36538">
        <ele>62</ele>
        <time>2023-11-05T11:36:12Z</time>
      </trkpt>
      <trkpt lat="47.62392" lon="-2.3655">
        <ele>64</ele>
        <time>2023-11-05T11:37:04Z</time>
      </trkpt>
      <trkpt lat="47.6237" lon="-2.36553">
        <ele>64</ele>
        <time>2023-11-05T11:37:33Z</time>
      </trkpt>
      <trkpt lat="47.62328" lon="-2.36566">
        <ele>66</ele>
        <time>2023-11-05T11:38:30Z</time>
      </trkpt>
      <trkpt lat="47.62306" lon="-2.36569">
        <ele>66</ele>
        <time>2023-11-05T11:39:00Z</time>
      </trkpt>
      <trkpt lat="47.62288" lon="-2.36576">
        <ele>66</ele>
        <time>2023-11-05T11:39:25Z</time>
      </trkpt>
      <trkpt lat="47.62275" lon="-2.36599">
        <ele>66</ele>
        <time>2023-11-05T11:39:52Z</time>
      </trkpt>
      <trkpt lat="47.62275" lon="-2.3663">
        <ele>67</ele>
        <time>2023-11-05T11:40:20Z</time>
      </trkpt>
      <trkpt lat="47.62264" lon="-2.36657">
        <ele>68</ele>
        <time>2023-11-05T11:40:48Z</time>
      </trkpt>
      <trkpt lat="47.62257" lon="-2.36713">
        <ele>70</ele>
        <time>2023-11-05T11:41:39Z</time>
      </trkpt>
      <trkpt lat="47.62254" lon="-2.36743">
        <ele>72</ele>
        <time>2023-11-05T11:42:07Z</time>
      </trkpt>
      <trkpt lat="47.62256" lon="-2.36772">
        <ele>71</ele>
        <time>2023-11-05T11:42:33Z</time>
      </trkpt>
      <trkpt lat="47.62254" lon="-2.36832">
        <ele>70</ele>
        <time>2023-11-05T11:43:27Z</time>
      </trkpt>
      <trkpt lat="47.62249" lon="-2.36887">
        <ele>71</ele>
        <time>2023-11-05T11:44:17Z</time>
      </trkpt>
      <trkpt lat="47.6225" lon="-2.36859">
        <ele>71</ele>
        <time>2023-11-05T11:44:42Z</time>
      </trkpt>
      <trkpt lat="47.62254" lon="-2.36886">
        <ele>71</ele>
        <time>2023-11-05T11:45:07Z</time>
      </trkpt>
      <trkpt lat="47.62242" lon="-2.3695">
        <ele>72</ele>
        <time>2023-11-05T11:46:07Z</time>
      </trkpt>
      <trkpt lat="47.62239" lon="-2.36979">
        <ele>73</ele>
        <time>2023-11-05T11:46:33Z</time>
      </trkpt>
      <trkpt lat="47.62244" lon="-2.37009">
        <ele>73</ele>
        <time>2023-11-05T11:47:01Z</time>
      </trkpt>
      <trkpt lat="47.62258" lon="-2.37035">
        <ele>72</ele>
        <time>2023-11-05T11:47:31Z</time>
      </trkpt>
      <trkpt lat="47.62246" lon="-2.37059">
        <ele>72</ele>
        <time>2023-11-05T11:47:58Z</time>
      </trkpt>
      <trkpt lat="47.62245" lon="-2.37092">
        <ele>72</ele>
        <time>2023-11-05T11:48:27Z</time>
      </trkpt>
      <trkpt lat="47.62254" lon="-2.37117">
        <ele>70</ele>
        <time>2023-11-05T11:48:53Z</time>
      </trkpt>
      <trkpt lat="47.62259" lon="-2.37147">
        <ele>69</ele>
        <time>2023-11-05T11:49:21Z</time>
      </trkpt>
      <trkpt lat="47.6226" lon="-2.37178">
        <ele>67</ele>
        <time>2023-11-05T11:49:48Z</time>
      </trkpt>
      <trkpt lat="47.62258" lon="-2.37208">
        <ele>64</ele>
        <time>2023-11-05T11:50:16Z</time>
      </trkpt>
      <trkpt lat="47.62253" lon="-2.37234">
        <ele>61</ele>
        <time>2023-11-05T11:50:40Z</time>
      </trkpt>
      <trkpt lat="47.62253" lon="-2.37261">
        <ele>59</ele>
        <time>2023-11-05T11:51:04Z</time>
      </trkpt>
      <trkpt lat="47.62242" lon="-2.37282">
        <ele>59</ele>
        <time>2023-11-05T11:51:28Z</time>
      </trkpt>
      <trkpt lat="47.62202" lon="-2.37279">
        <ele>61</ele>
        <time>2023-11-05T11:52:22Z</time>
      </trkpt>
      <trkpt lat="47.62143" lon="-2.37286">
        <ele>64</ele>
        <time>2023-11-05T11:53:41Z</time>
      </trkpt>
      <trkpt lat="47.62084" lon="-2.37312">
        <ele>66</ele>
        <time>2023-11-05T11:55:03Z</time>
      </trkpt>
      <trkpt lat="47.62067" lon="-2.37334">
        <ele>66</ele>
        <time>2023-11-05T11:55:33Z</time>
      </trkpt>
      <trkpt lat="47.62054" lon="-2.37358">
        <ele>66</ele>
        <time>2023-11-05T11:56:00Z</time>
      </trkpt>
      <trkpt lat="47.62057" lon="-2.37389">
        <ele>66</ele>
        <time>2023-11-05T11:56:29Z</time>
      </trkpt>
      <trkpt lat="47.6208" lon="-2.37471">
        <ele>67</ele>
        <time>2023-11-05T11:57:48Z</time>
      </trkpt>
      <trkpt lat="47.62081" lon="-2.37499">
        <ele>68</ele>
        <time>2023-11-05T11:58:14Z</time>
      </trkpt>
      <trkpt lat="47.62068" lon="-2.37525">
        <ele>70</ele>
        <time>2023-11-05T11:58:43Z</time>
      </trkpt>
      <trkpt lat="47.6205" lon="-2.37533">
        <ele>71</ele>
        <time>2023-11-05T11:59:08Z</time>
      </trkpt>
      <trkpt lat="47.62031" lon="-2.37545">
        <ele>73</ele>
        <time>2023-11-05T11:59:35Z</time>
      </trkpt>
      <trkpt lat="47.62021" lon="-2.37569">
        <ele>75</ele>
        <time>2023-11-05T12:00:01Z</time>
      </trkpt>
      <trkpt lat="47.6202" lon="-2.37597">
        <ele>75</ele>
        <time>2023-11-05T12:00:26Z</time>
      </trkpt>
      <trkpt lat="47.62024" lon="-2.37624">
        <ele>75</ele>
        <time>2023-11-05T12:00:51Z</time>
      </trkpt>
      <trkpt lat="47.62039" lon="-2.37685">
        <ele>74</ele>
        <time>2023-11-05T12:01:49Z</time>
      </trkpt>
      <trkpt lat="47.62054" lon="-2.37811">
        <ele>74</ele>
        <time>2023-11-05T12:03:44Z</time>
      </trkpt>
      <trkpt lat="47.62071" lon="-2.379">
        <ele>75</ele>
        <time>2023-11-05T12:05:08Z</time>
      </trkpt>
      <trkpt lat="47.62139" lon="-2.38131">
        <ele>78</ele>
        <time>2023-11-05T12:08:54Z</time>
      </trkpt>
      <trkpt lat="47.6215" lon="-2.38157">
        <ele>78</ele>
        <time>2023-11-05T12:09:22Z</time>
      </trkpt>
      <trkpt lat="47.62164" lon="-2.38212">
        <ele>78</ele>
        <time>2023-11-05T12:10:15Z</time>
      </trkpt>
      <trkpt lat="47.62202" lon="-2.38238">
        <ele>78</ele>
        <time>2023-11-05T12:11:11Z</time>
      </trkpt>
      <trkpt lat="47.62222" lon="-2.38244">
        <ele>78</ele>
        <time>2023-11-05T12:11:38Z</time>
      </trkpt>
      <trkpt lat="47.62241" lon="-2.38236">
        <ele>77</ele>
        <time>2023-11-05T12:12:04Z</time>
      </trkpt>
      <trkpt lat="47.62252" lon="-2.38258">
        <ele>78</ele>
        <time>2023-11-05T12:12:29Z</time>
      </trkpt>
      <trkpt lat="47.62253" lon="-2.38288">
        <ele>80</ele>
        <time>2023-11-05T12:12:56Z</time>
      </trkpt>
      <trkpt lat="47.62272" lon="-2.38287">
        <ele>77</ele>
        <time>2023-11-05T12:13:21Z</time>
      </trkpt>
      <trkpt lat="47.62312" lon="-2.38272">
        <ele>69</ele>
        <time>2023-11-05T12:14:16Z</time>
      </trkpt>
      <trkpt lat="47.62331" lon="-2.38275">
        <ele>66</ele>
        <time>2023-11-05T12:14:42Z</time>
      </trkpt>
      <trkpt lat="47.6235" lon="-2.38289">
        <ele>66</ele>
        <time>2023-11-05T12:15:10Z</time>
      </trkpt>
      <trkpt lat="47.62367" lon="-2.38344">
        <ele>67</ele>
        <time>2023-11-05T12:16:05Z</time>
      </trkpt>
      <trkpt lat="47.62389" lon="-2.38459">
        <ele>70</ele>
        <time>2023-11-05T12:17:52Z</time>
      </trkpt>
      <trkpt lat="47.62399" lon="-2.38484">
        <ele>71</ele>
        <time>2023-11-05T12:18:18Z</time>
      </trkpt>
      <trkpt lat="47.62423" lon="-2.38525">
        <ele>72</ele>
        <time>2023-11-05T12:19:07Z</time>
      </trkpt>
      <trkpt lat="47.62422" lon="-2.38554">
        <ele>74</ele>
        <time>2023-11-05T12:19:33Z</time>
      </trkpt>
      <trkpt lat="47.62417" lon="-2.38582">
        <ele>76</ele>
        <time>2023-11-05T12:19:59Z</time>
      </trkpt>
      <trkpt lat="47.62428" lon="-2.38644">
        <ele>79</ele>
        <time>2023-11-05T12:20:57Z</time>
      </trkpt>
      <trkpt lat="47.62456" lon="-2.38758">
        <ele>84</ele>
        <time>2023-11-05T12:22:46Z</time>
      </trkpt>
      <trkpt lat="47.62466" lon="-2.38816">
        <ele>87</ele>
        <time>2023-11-05T12:23:40Z</time>
      </trkpt>
      <trkpt lat="47.62466" lon="-2.38849">
        <ele>87</ele>
        <time>2023-11-05T12:24:10Z</time>
      </trkpt>
      <trkpt lat="47.6247" lon="-2.38876">
        <ele>87</ele>
        <time>2023-11-05T12:24:34Z</time>
      </trkpt>
      <trkpt lat="47.62454" lon="-2.3889">
        <ele>85</ele>
        <time>2023-11-05T12:24:59Z</time>
      </trkpt>
      <trkpt lat="47.62472" lon="-2.38897">
        <ele>87</ele>
        <time>2023-11-05T12:25:24Z</time>
      </trkpt>
      <trkpt lat="47.62487" lon="-2.38951">
        <ele>88</ele>
        <time>2023-11-05T12:26:17Z</time>
      </trkpt>
      <trkpt lat="47.62502" lon="-2.38977">
        <ele>89</ele>
        <time>2023-11-05T12:26:47Z</time>
      </trkpt>
      <trkpt lat="47.62523" lon="-2.3897">
        <ele>92</ele>
        <time>2023-11-05T12:27:16Z</time>
      </trkpt>
      <trkpt lat="47.6254" lon="-2.3895">
        <ele>95</ele>
        <time>2023-11-05T12:27:45Z</time>
      </trkpt>
      <trkpt lat="47.62581" lon="-2.38949">
        <ele>100</ele>
        <time>2023-11-05T12:28:40Z</time>
      </trkpt>
      <trkpt lat="47.62595" lon="-2.38968">
        <ele>98</ele>
        <time>2023-11-05T12:29:05Z</time>
      </trkpt>
      <trkpt lat="47.62585" lon="-2.38992">
        <ele>97</ele>
        <time>2023-11-05T12:29:30Z</time>
      </trkpt>
      <trkpt lat="47.62574" lon="-2.39046">
        <ele>94</ele>
        <time>2023-11-05T12:30:21Z</time>
      </trkpt>
      <trkpt lat="47.62574" lon="-2.39073">
        <ele>93</ele>
        <time>2023-11-05T12:30:46Z</time>
      </trkpt>
      <trkpt lat="47.62604" lon="-2.39117">
        <ele>94</ele>
        <time>2023-11-05T12:31:42Z</time>
      </trkpt>
      <trkpt lat="47.62616" lon="-2.39143">
        <ele>95</ele>
        <time>2023-11-05T12:32:10Z</time>
      </trkpt>
      <trkpt lat="47.62624" lon="-2.39168">
        <ele>95</ele>
        <time>2023-11-05T12:32:35Z</time>
      </trkpt>
      <trkpt lat="47.62636" lon="-2.39189">
        <ele>95</ele>
        <time>2023-11-05T12:33:00Z</time>
      </trkpt>
      <trkpt lat="47.62651" lon="-2.39176">
        <ele>96</ele>
        <time>2023-11-05T12:33:23Z</time>
      </trkpt>
      <trkpt lat="47.6267" lon="-2.39171">
        <ele>97</ele>
        <time>2023-11-05T12:33:49Z</time>
      </trkpt>
      <trkpt lat="47.6271" lon="-2.39153">
        <ele>93</ele>
        <time>2023-11-05T12:34:44Z</time>
      </trkpt>
      <trkpt lat="47.62728" lon="-2.39135">
        <ele>91</ele>
        <time>2023-11-05T12:35:13Z</time>
      </trkpt>
      <trkpt lat="47.62747" lon="-2.39134">
        <ele>89</ele>
        <time>2023-11-05T12:35:39Z</time>
      </trkpt>
      <trkpt lat="47.62786" lon="-2.39117">
        <ele>83</ele>
        <time>2023-11-05T12:36:33Z</time>
      </trkpt>
      <trkpt lat="47.62801" lon="-2.39103">
        <ele>80</ele>
        <time>2023-11-05T12:36:57Z</time>
      </trkpt>
      <trkpt lat="47.62818" lon="-2.39117">
        <ele>78</ele>
        <time>2023-11-05T12:37:23Z</time>
      </trkpt>
      <trkpt lat="47.62833" lon="-2.39138">
        <ele>77</ele>
        <time>2023-11-05T12:37:50Z</time>
      </trkpt>
      <trkpt lat="47.62853" lon="-2.39134">
        <ele>75</ele>
        <time>2023-11-05T12:38:17Z</time>
      </trkpt>
      <trkpt lat="47.62886" lon="-2.39099">
        <ele>72</ele>
        <time>2023-11-05T12:39:11Z</time>
      </trkpt>
      <trkpt lat="47.6296" lon="-2.39063">
        <ele>70</ele>
        <time>2023-11-05T12:40:55Z</time>
      </trkpt>
      <trkpt lat="47.62959" lon="-2.39034">
        <ele>69</ele>
        <time>2023-11-05T12:41:21Z</time>
      </trkpt>
      <trkpt lat="47.62952" lon="-2.39009">
        <ele>69</ele>
        <time>2023-11-05T12:41:46Z</time>
      </trkpt>
      <trkpt lat="47.62932" lon="-2.38962">
        <ele>69</ele>
        <time>2023-11-05T12:42:36Z</time>
      </trkpt>
      <trkpt lat="47.62931" lon="-2.38929">
        <ele>70</ele>
        <time>2023-11-05T12:43:05Z</time>
      </trkpt>
      <trkpt lat="47.62917" lon="-2.38874">
        <ele>70</ele>
        <time>2023-11-05T12:43:58Z</time>
      </trkpt>
      <trkpt lat="47.62917" lon="-2.38841">
        <ele>70</ele>
        <time>2023-11-05T12:44:28Z</time>
      </trkpt>
      <trkpt lat="47.62931" lon="-2.38692">
        <ele>75</ele>
        <time>2023-11-05T12:46:43Z</time>
      </trkpt>
      <trkpt lat="47.62944" lon="-2.38605">
        <ele>76</ele>
        <time>2023-11-05T12:48:03Z</time>
      </trkpt>
      <trkpt lat="47.62946" lon="-2.38576">
        <ele>76</ele>
        <time>2023-11-05T12:48:30Z</time>
      </trkpt>
      <trkpt lat="47.62959" lon="-2.38552">
        <ele>76</ele>
        <time>2023-11-05T12:48:57Z</time>
      </trkpt>
      <trkpt lat="47.6298" lon="-2.38556">
        <ele>75</ele>
        <time>2023-11-05T12:49:25Z</time>
      </trkpt>
      <trkpt lat="47.62972" lon="-2.38526">
        <ele>75</ele>
        <time>2023-11-05T12:49:55Z</time>
      </trkpt>
      <trkpt lat="47.62959" lon="-2.385">
        <ele>76</ele>
        <time>2023-11-05T12:50:24Z</time>
      </trkpt>
      <trkpt lat="47.62915" lon="-2.38431">
        <ele>76</ele>
        <time>2023-11-05T12:51:49Z</time>
      </trkpt>
      <trkpt lat="47.62888" lon="-2.38382">
        <ele>76</ele>
        <time>2023-11-05T12:52:46Z</time>
      </trkpt>
      <trkpt lat="47.62876" lon="-2.38354">
        <ele>77</ele>
        <time>2023-11-05T12:53:16Z</time>
      </trkpt>
      <trkpt lat="47.62861" lon="-2.38334">
        <ele>77</ele>
        <time>2023-11-05T12:53:43Z</time>
      </trkpt>
      <trkpt lat="47.6285" lon="-2.38312">
        <ele>76</ele>
        <time>2023-11-05T12:54:07Z</time>
      </trkpt>
      <trkpt lat="47.62893" lon="-2.38378">
        <ele>76</ele>
        <time>2023-11-05T12:55:30Z</time>
      </trkpt>
      <trkpt lat="47.62919" lon="-2.38424">
        <ele>76</ele>
        <time>2023-11-05T12:56:24Z</time>
      </trkpt>
      <trkpt lat="47.62935" lon="-2.38442">
        <ele>76</ele>
        <time>2023-11-05T12:56:51Z</time>
      </trkpt>
      <trkpt lat="47.62959" lon="-2.3849">
        <ele>76</ele>
        <time>2023-11-05T12:57:44Z</time>
      </trkpt>
      <trkpt lat="47.62998" lon="-2.38549">
        <ele>74</ele>
        <time>2023-11-05T12:58:59Z</time>
      </trkpt>
      <trkpt lat="47.63055" lon="-2.38463">
        <ele>72</ele>
        <time>2023-11-05T13:00:47Z</time>
      </trkpt>
      <trkpt lat="47.63067" lon="-2.3844">
        <ele>71</ele>
        <time>2023-11-05T13:01:13Z</time>
      </trkpt>
      <trkpt lat="47.63072" lon="-2.3841">
        <ele>71</ele>
        <time>2023-11-05T13:01:41Z</time>
      </trkpt>
      <trkpt lat="47.63069" lon="-2.38383">
        <ele>71</ele>
        <time>2023-11-05T13:02:06Z</time>
      </trkpt>
      <trkpt lat="47.63037" lon="-2.38344">
        <ele>73</ele>
        <time>2023-11-05T13:03:01Z</time>
      </trkpt>
      <trkpt lat="47.63025" lon="-2.38323">
        <ele>74</ele>
        <time>2023-11-05T13:03:26Z</time>
      </trkpt>
      <trkpt lat="47.63013" lon="-2.38269">
        <ele>75</ele>
        <time>2023-11-05T13:04:17Z</time>
      </trkpt>
      <trkpt lat="47.63025" lon="-2.38246">
        <ele>74</ele>
        <time>2023-11-05T13:04:43Z</time>
      </trkpt>
      <trkpt lat="47.63045" lon="-2.38245">
        <ele>71</ele>
        <time>2023-11-05T13:05:10Z</time>
      </trkpt>
      <trkpt lat="47.63065" lon="-2.38248">
        <ele>69</ele>
        <time>2023-11-05T13:05:37Z</time>
      </trkpt>
      <trkpt lat="47.63084" lon="-2.38241">
        <ele>66</ele>
        <time>2023-11-05T13:06:03Z</time>
      </trkpt>
      <trkpt lat="47.63105" lon="-2.38238">
        <ele>62</ele>
        <time>2023-11-05T13:06:31Z</time>
      </trkpt>
      <trkpt lat="47.63123" lon="-2.38239">
        <ele>59</ele>
        <time>2023-11-05T13:06:55Z</time>
      </trkpt>
      <trkpt lat="47.63132" lon="-2.38212">
        <ele>56</ele>
        <time>2023-11-05T13:07:22Z</time>
      </trkpt>
      <trkpt lat="47.63144" lon="-2.38191">
        <ele>52</ele>
        <time>2023-11-05T13:07:47Z</time>
      </trkpt>
      <trkpt lat="47.63159" lon="-2.38214">
        <ele>51</ele>
        <time>2023-11-05T13:08:16Z</time>
      </trkpt>
      <trkpt lat="47.6317" lon="-2.38237">
        <ele>51</ele>
        <time>2023-11-05T13:08:41Z</time>
      </trkpt>
      <trkpt lat="47.63208" lon="-2.38263">
        <ele>46</ele>
        <time>2023-11-05T13:09:37Z</time>
      </trkpt>
      <trkpt lat="47.63227" lon="-2.38312">
        <ele>45</ele>
        <time>2023-11-05T13:10:28Z</time>
      </trkpt>
      <trkpt lat="47.63265" lon="-2.38316">
        <ele>39</ele>
        <time>2023-11-05T13:11:18Z</time>
      </trkpt>
      <trkpt lat="47.63288" lon="-2.38329">
        <ele>38</ele>
        <time>2023-11-05T13:11:51Z</time>
      </trkpt>
      <trkpt lat="47.63304" lon="-2.38345">
        <ele>37</ele>
        <time>2023-11-05T13:12:17Z</time>
      </trkpt>
      <trkpt lat="47.63316" lon="-2.38369">
        <ele>37</ele>
        <time>2023-11-05T13:12:44Z</time>
      </trkpt>
      <trkpt lat="47.63333" lon="-2.38375">
        <ele>36</ele>
        <time>2023-11-05T13:13:07Z</time>
      </trkpt>
      <trkpt lat="47.63352" lon="-2.38376">
        <ele>38</ele>
        <time>2023-11-05T13:13:33Z</time>
      </trkpt>
      <trkpt lat="47.63366" lon="-2.38356">
        <ele>39</ele>
        <time>2023-11-05T13:13:59Z</time>
      </trkpt>
      <trkpt lat="47.63374" lon="-2.38329">
        <ele>39</ele>
        <time>2023-11-05T13:14:25Z</time>
      </trkpt>
      <trkpt lat="47.63393" lon="-2.38331">
        <ele>42</ele>
        <time>2023-11-05T13:14:51Z</time>
      </trkpt>
      <trkpt lat="47.63436" lon="-2.38401">
        <ele>45</ele>
        <time>2023-11-05T13:16:16Z</time>
      </trkpt>
      <trkpt lat="47.63438" lon="-2.38461">
        <ele>46</ele>
        <time>2023-11-05T13:17:10Z</time>
      </trkpt>
      <trkpt lat="47.63444" lon="-2.38487">
        <ele>46</ele>
        <time>2023-11-05T13:17:34Z</time>
      </trkpt>
      <trkpt lat="47.63453" lon="-2.38512">
        <ele>47</ele>
        <time>2023-11-05T13:18:00Z</time>
      </trkpt>
      <trkpt lat="47.63454" lon="-2.38539">
        <ele>47</ele>
        <time>2023-11-05T13:18:24Z</time>
      </trkpt>
      <trkpt lat="47.63441" lon="-2.3866">
        <ele>43</ele>
        <time>2023-11-05T13:20:14Z</time>
      </trkpt>
      <trkpt lat="47.63433" lon="-2.38689">
        <ele>41</ele>
        <time>2023-11-05T13:20:43Z</time>
      </trkpt>
      <trkpt lat="47.63428" lon="-2.3872">
        <ele>40</ele>
        <time>2023-11-05T13:21:11Z</time>
      </trkpt>
      <trkpt lat="47.63465" lon="-2.38748">
        <ele>45</ele>
        <time>2023-11-05T13:22:07Z</time>
      </trkpt>
      <trkpt lat="47.63479" lon="-2.38769">
        <ele>47</ele>
        <time>2023-11-05T13:22:33Z</time>
      </trkpt>
      <trkpt lat="47.63489" lon="-2.38793">
        <ele>47</ele>
        <time>2023-11-05T13:22:59Z</time>
      </trkpt>
      <trkpt lat="47.63501" lon="-2.38814">
        <ele>46</ele>
        <time>2023-11-05T13:23:23Z</time>
      </trkpt>
      <trkpt lat="47.63512" lon="-2.38903">
        <ele>45</ele>
        <time>2023-11-05T13:24:45Z</time>
      </trkpt>
      <trkpt lat="47.6352" lon="-2.38933">
        <ele>47</ele>
        <time>2023-11-05T13:25:14Z</time>
      </trkpt>
      <trkpt lat="47.63531" lon="-2.38958">
        <ele>49</ele>
        <time>2023-11-05T13:25:41Z</time>
      </trkpt>
      <trkpt lat="47.63531" lon="-2.38987">
        <ele>50</ele>
        <time>2023-11-05T13:26:07Z</time>
      </trkpt>
      <trkpt lat="47.63543" lon="-2.39042">
        <ele>52</ele>
        <time>2023-11-05T13:26:59Z</time>
      </trkpt>
      <trkpt lat="47.63546" lon="-2.39073">
        <ele>52</ele>
        <time>2023-11-05T13:27:27Z</time>
      </trkpt>
      <trkpt lat="47.63561" lon="-2.39128">
        <ele>52</ele>
        <time>2023-11-05T13:28:20Z</time>
      </trkpt>
      <trkpt lat="47.63578" lon="-2.39146">
        <ele>51</ele>
        <time>2023-11-05T13:28:48Z</time>
      </trkpt>
      <trkpt lat="47.63595" lon="-2.39158">
        <ele>50</ele>
        <time>2023-11-05T13:29:13Z</time>
      </trkpt>
      <trkpt lat="47.63613" lon="-2.39164">
        <ele>50</ele>
        <time>2023-11-05T13:29:38Z</time>
      </trkpt>
      <trkpt lat="47.63628" lon="-2.39151">
        <ele>51</ele>
        <time>2023-11-05T13:30:01Z</time>
      </trkpt>
      <trkpt lat="47.63649" lon="-2.39157">
        <ele>51</ele>
        <time>2023-11-05T13:30:30Z</time>
      </trkpt>
      <trkpt lat="47.63663" lon="-2.39175">
        <ele>51</ele>
        <time>2023-11-05T13:30:54Z</time>
      </trkpt>
      <trkpt lat="47.63687" lon="-2.39219">
        <ele>50</ele>
        <time>2023-11-05T13:31:45Z</time>
      </trkpt>
      <trkpt lat="47.63696" lon="-2.39247">
        <ele>50</ele>
        <time>2023-11-05T13:32:13Z</time>
      </trkpt>
      <trkpt lat="47.63702" lon="-2.39276">
        <ele>50</ele>
        <time>2023-11-05T13:32:40Z</time>
      </trkpt>
      <trkpt lat="47.6371" lon="-2.39341">
        <ele>49</ele>
        <time>2023-11-05T13:33:40Z</time>
      </trkpt>
      <trkpt lat="47.6371" lon="-2.39372">
        <ele>48</ele>
        <time>2023-11-05T13:34:08Z</time>
      </trkpt>
      <trkpt lat="47.63718" lon="-2.39399">
        <ele>48</ele>
        <time>2023-11-05T13:34:34Z</time>
      </trkpt>
      <trkpt lat="47.63733" lon="-2.39416">
        <ele>47</ele>
        <time>2023-11-05T13:34:59Z</time>
      </trkpt>
      <trkpt lat="47.63755" lon="-2.39427">
        <ele>47</ele>
        <time>2023-11-05T13:35:30Z</time>
      </trkpt>
      <trkpt lat="47.63767" lon="-2.3945">
        <ele>47</ele>
        <time>2023-11-05T13:35:56Z</time>
      </trkpt>
      <trkpt lat="47.63801" lon="-2.39482">
        <ele>46</ele>
        <time>2023-11-05T13:36:50Z</time>
      </trkpt>
      <trkpt lat="47.63818" lon="-2.39473">
        <ele>47</ele>
        <time>2023-11-05T13:37:14Z</time>
      </trkpt>
      <trkpt lat="47.63834" lon="-2.39458">
        <ele>48</ele>
        <time>2023-11-05T13:37:40Z</time>
      </trkpt>
      <trkpt lat="47.63856" lon="-2.39407">
        <ele>51</ele>
        <time>2023-11-05T13:38:34Z</time>
      </trkpt>
      <trkpt lat="47.63892" lon="-2.39298">
        <ele>58</ele>
        <time>2023-11-05T13:40:23Z</time>
      </trkpt>
      <trkpt lat="47.63889" lon="-2.39271">
        <ele>59</ele>
        <time>2023-11-05T13:40:48Z</time>
      </trkpt>
      <trkpt lat="47.63897" lon="-2.39241">
        <ele>60</ele>
        <time>2023-11-05T13:41:17Z</time>
      </trkpt>
      <trkpt lat="47.63903" lon="-2.39098">
        <ele>68</ele>
        <time>2023-11-05T13:43:26Z</time>
      </trkpt>
      <trkpt lat="47.63906" lon="-2.3907">
        <ele>69</ele>
        <time>2023-11-05T13:43:51Z</time>
      </trkpt>
      <trkpt lat="47.63918" lon="-2.39012">
        <ele>70</ele>
        <time>2023-11-05T13:44:46Z</time>
      </trkpt>
      <trkpt lat="47.63928" lon="-2.38983">
        <ele>72</ele>
        <time>2023-11-05T13:45:15Z</time>
      </trkpt>
      <trkpt lat="47.63941" lon="-2.38932">
        <ele>74</ele>
        <time>2023-11-05T13:46:04Z</time>
      </trkpt>
      <trkpt lat="47.63953" lon="-2.38908">
        <ele>76</ele>
        <time>2023-11-05T13:46:31Z</time>
      </trkpt>
      <trkpt lat="47.63962" lon="-2.3888">
        <ele>76</ele>
        <time>2023-11-05T13:46:59Z</time>
      </trkpt>
      <trkpt lat="47.63966" lon="-2.38849">
        <ele>76</ele>
        <time>2023-11-05T13:47:27Z</time>
      </trkpt>
      <trkpt lat="47.63965" lon="-2.38821">
        <ele>75</ele>
        <time>2023-11-05T13:47:52Z</time>
      </trkpt>
      <trkpt lat="47.63926" lon="-2.38718">
        <ele>69</ele>
        <time>2023-11-05T13:49:39Z</time>
      </trkpt>
      <trkpt lat="47.63916" lon="-2.38659">
        <ele>69</ele>
        <time>2023-11-05T13:50:33Z</time>
      </trkpt>
      <trkpt lat="47.63916" lon="-2.38601">
        <ele>70</ele>
        <time>2023-11-05T13:51:25Z</time>
      </trkpt>
      <trkpt lat="47.63907" lon="-2.38541">
        <ele>68</ele>
        <time>2023-11-05T13:52:21Z</time>
      </trkpt>
      <trkpt lat="47.63898" lon="-2.3845">
        <ele>65</ele>
        <time>2023-11-05T13:53:43Z</time>
      </trkpt>
      <trkpt lat="47.63888" lon="-2.38423">
        <ele>62</ele>
        <time>2023-11-05T13:54:11Z</time>
      </trkpt>
      <trkpt lat="47.63891" lon="-2.38396">
        <ele>63</ele>
        <time>2023-11-05T13:54:36Z</time>
      </trkpt>
      <trkpt lat="47.639" lon="-2.38373">
        <ele>65</ele>
        <time>2023-11-05T13:55:00Z</time>
      </trkpt>
      <trkpt lat="47.63893" lon="-2.38324">
        <ele>65</ele>
        <time>2023-11-05T13:55:45Z</time>
      </trkpt>
      <trkpt lat="47.63877" lon="-2.38306">
        <ele>64</ele>
        <time>2023-11-05T13:56:11Z</time>
      </trkpt>
      <trkpt lat="47.63865" lon="-2.38285">
        <ele>63</ele>
        <time>2023-11-05T13:56:36Z</time>
      </trkpt>
      <trkpt lat="47.63886" lon="-2.38284">
        <ele>67</ele>
        <time>2023-11-05T13:57:04Z</time>
      </trkpt>
      <trkpt lat="47.63903" lon="-2.38296">
        <ele>69</ele>
        <time>2023-11-05T13:57:29Z</time>
      </trkpt>
      <trkpt lat="47.6394" lon="-2.38315">
        <ele>73</ele>
        <time>2023-11-05T13:58:22Z</time>
      </trkpt>
      <trkpt lat="47.63959" lon="-2.38304">
        <ele>75</ele>
        <time>2023-11-05T13:58:49Z</time>
      </trkpt>
      <trkpt lat="47.63977" lon="-2.38313">
        <ele>77</ele>
        <time>2023-11-05T13:59:14Z</time>
      </trkpt>
      <trkpt lat="47.63999" lon="-2.383">
        <ele>80</ele>
        <time>2023-11-05T13:59:46Z</time>
      </trkpt>
      <trkpt lat="47.64014" lon="-2.38286">
        <ele>81</ele>
        <time>2023-11-05T14:00:09Z</time>
      </trkpt>
      <trkpt lat="47.64004" lon="-2.38262">
        <ele>81</ele>
        <time>2023-11-05T14:00:35Z</time>
      </trkpt>
      <trkpt lat="47.64" lon="-2.38232">
        <ele>81</ele>
        <time>2023-11-05T14:01:02Z</time>
      </trkpt>
      <trkpt lat="47.63975" lon="-2.38149">
        <ele>82</ele>
        <time>2023-11-05T14:02:24Z</time>
      </trkpt>
      <trkpt lat="47.63963" lon="-2.38119">
        <ele>82</ele>
        <time>2023-11-05T14:02:55Z</time>
      </trkpt>
      <trkpt lat="47.63958" lon="-2.38088">
        <ele>82</ele>
        <time>2023-11-05T14:03:24Z</time>
      </trkpt>
      <trkpt lat="47.63949" lon="-2.38059">
        <ele>82</ele>
        <time>2023-11-05T14:03:53Z</time>
      </trkpt>
      <trkpt lat="47.63913" lon="-2.3803">
        <ele>83</ele>
        <time>2023-11-05T14:04:47Z</time>
      </trkpt>
      <trkpt lat="47.63904" lon="-2.38">
        <ele>84</ele>
        <time>2023-11-05T14:05:17Z</time>
      </trkpt>
      <trkpt lat="47.63893" lon="-2.37977">
        <ele>84</ele>
        <time>2023-11-05T14:05:42Z</time>
      </trkpt>
      <trkpt lat="47.63874" lon="-2.37925">
        <ele>83</ele>
        <time>2023-11-05T14:06:35Z</time>
      </trkpt>
      <trkpt lat="47.63862" lon="-2.37903">
        <ele>82</ele>
        <time>2023-11-05T14:07:01Z</time>
      </trkpt>
      <trkpt lat="47.63855" lon="-2.37875">
        <ele>82</ele>
        <time>2023-11-05T14:07:28Z</time>
      </trkpt>
      <trkpt lat="47.6385" lon="-2.37816">
        <ele>81</ele>
        <time>2023-11-05T14:08:21Z</time>
      </trkpt>
      <trkpt lat="47.63854" lon="-2.37727">
        <ele>82</ele>
        <time>2023-11-05T14:09:41Z</time>
      </trkpt>
      <trkpt lat="47.63851" lon="-2.37668">
        <ele>81</ele>
        <time>2023-11-05T14:10:35Z</time>
      </trkpt>
      <trkpt lat="47.63827" lon="-2.37613">
        <ele>80</ele>
        <time>2023-11-05T14:11:34Z</time>
      </trkpt>
      <trkpt lat="47.63812" lon="-2.37554">
        <ele>80</ele>
        <time>2023-11-05T14:12:30Z</time>
      </trkpt>
      <trkpt lat="47.638" lon="-2.37528">
        <ele>80</ele>
        <time>2023-11-05T14:12:59Z</time>
      </trkpt>
      <trkpt lat="47.63787" lon="-2.3747">
        <ele>81</ele>
        <time>2023-11-05T14:13:54Z</time>
      </trkpt>
      <trkpt lat="47.63771" lon="-2.37413">
        <ele>83</ele>
        <time>2023-11-05T14:14:49Z</time>
      </trkpt>
      <trkpt lat="47.6375" lon="-2.37362">
        <ele>83</ele>
        <time>2023-11-05T14:15:43Z</time>
      </trkpt>
      <trkpt lat="47.63733" lon="-2.37347">
        <ele>81</ele>
        <time>2023-11-05T14:16:09Z</time>
      </trkpt>
      <trkpt lat="47.6372" lon="-2.37327">
        <ele>79</ele>
        <time>2023-11-05T14:16:34Z</time>
      </trkpt>
      <trkpt lat="47.63682" lon="-2.37296">
        <ele>76</ele>
        <time>2023-11-05T14:17:32Z</time>
      </trkpt>
      <trkpt lat="47.63667" lon="-2.3728">
        <ele>75</ele>
        <time>2023-11-05T14:17:57Z</time>
      </trkpt>
      <trkpt lat="47.63652" lon="-2.37255">
        <ele>73</ele>
        <time>2023-11-05T14:18:27Z</time>
      </trkpt>
      <trkpt lat="47.63619" lon="-2.37179">
        <ele>69</ele>
        <time>2023-11-05T14:19:48Z</time>
      </trkpt>
      <trkpt lat="47.63605" lon="-2.37156">
        <ele>67</ele>
        <time>2023-11-05T14:20:16Z</time>
      </trkpt>
      <trkpt lat="47.63599" lon="-2.37128">
        <ele>66</ele>
        <time>2023-11-05T14:20:42Z</time>
      </trkpt>
      <trkpt lat="47.63587" lon="-2.37104">
        <ele>65</ele>
        <time>2023-11-05T14:21:09Z</time>
      </trkpt>
      <trkpt lat="47.63546" lon="-2.37038">
        <ele>61</ele>
        <time>2023-11-05T14:22:30Z</time>
      </trkpt>
      <trkpt lat="47.63535" lon="-2.37011">
        <ele>61</ele>
        <time>2023-11-05T14:22:58Z</time>
      </trkpt>
      <trkpt lat="47.63535" lon="-2.3698">
        <ele>62</ele>
        <time>2023-11-05T14:23:26Z</time>
      </trkpt>
      <trkpt lat="47.6354" lon="-2.3692">
        <ele>66</ele>
        <time>2023-11-05T14:24:21Z</time>
      </trkpt>
      <trkpt lat="47.63539" lon="-2.36888">
        <ele>67</ele>
        <time>2023-11-05T14:24:49Z</time>
      </trkpt>
      <trkpt lat="47.63504" lon="-2.36717">
        <ele>72</ele>
        <time>2023-11-05T14:27:30Z</time>
      </trkpt>
      <trkpt lat="47.63497" lon="-2.36659">
        <ele>74</ele>
        <time>2023-11-05T14:28:23Z</time>
      </trkpt>
      <trkpt lat="47.63494" lon="-2.36569">
        <ele>77</ele>
        <time>2023-11-05T14:29:44Z</time>
      </trkpt>
      <trkpt lat="47.63496" lon="-2.3654">
        <ele>79</ele>
        <time>2023-11-05T14:30:10Z</time>
      </trkpt>
      <trkpt lat="47.6349" lon="-2.36484">
        <ele>80</ele>
        <time>2023-11-05T14:31:01Z</time>
      </trkpt>
      <trkpt lat="47.6349" lon="-2.36452">
        <ele>79</ele>
        <time>2023-11-05T14:31:30Z</time>
      </trkpt>
      <trkpt lat="47.63512" lon="-2.364">
        <ele>80</ele>
        <time>2023-11-05T14:32:25Z</time>
      </trkpt>
      <trkpt lat="47.63523" lon="-2.3638">
        <ele>79</ele>
        <time>2023-11-05T14:32:49Z</time>
      </trkpt>
      <trkpt lat="47.63543" lon="-2.36363">
        <ele>80</ele>
        <time>2023-11-05T14:33:19Z</time>
      </trkpt>
      <trkpt lat="47.63549" lon="-2.36336">
        <ele>80</ele>
        <time>2023-11-05T14:33:45Z</time>
      </trkpt>
      <trkpt lat="47.63535" lon="-2.3631">
        <ele>77</ele>
        <time>2023-11-05T14:34:15Z</time>
      </trkpt>
      <trkpt lat="47.63532" lon="-2.36283">
        <ele>74</ele>
        <time>2023-11-05T14:34:39Z</time>
      </trkpt>
      <trkpt lat="47.63552" lon="-2.36228">
        <ele>73</ele>
        <time>2023-11-05T14:35:36Z</time>
      </trkpt>
      <trkpt lat="47.63589" lon="-2.36162">
        <ele>73</ele>
        <time>2023-11-05T14:36:53Z</time>
      </trkpt>
      <trkpt lat="47.63607" lon="-2.36111">
        <ele>67</ele>
        <time>2023-11-05T14:37:45Z</time>
      </trkpt>
      <trkpt lat="47.63628" lon="-2.36112">
        <ele>69</ele>
        <time>2023-11-05T14:38:13Z</time>
      </trkpt>
      <trkpt lat="47.63644" lon="-2.36097">
        <ele>70</ele>
        <time>2023-11-05T14:38:38Z</time>
      </trkpt>
      <trkpt lat="47.63662" lon="-2.36102">
        <ele>72</ele>
        <time>2023-11-05T14:39:02Z</time>
      </trkpt>
      <trkpt lat="47.63682" lon="-2.36101">
        <ele>73</ele>
        <time>2023-11-05T14:39:29Z</time>
      </trkpt>
      <trkpt lat="47.63701" lon="-2.36114">
        <ele>76</ele>
        <time>2023-11-05T14:39:57Z</time>
      </trkpt>
      <trkpt lat="47.63717" lon="-2.36099">
        <ele>75</ele>
        <time>2023-11-05T14:40:22Z</time>
      </trkpt>
      <trkpt lat="47.63736" lon="-2.36098">
        <ele>76</ele>
        <time>2023-11-05T14:40:48Z</time>
      </trkpt>
      <trkpt lat="47.63754" lon="-2.36088">
        <ele>76</ele>
        <time>2023-11-05T14:41:13Z</time>
      </trkpt>
      <trkpt lat="47.63773" lon="-2.36073">
        <ele>75</ele>
        <time>2023-11-05T14:41:42Z</time>
      </trkpt>
      <trkpt lat="47.63794" lon="-2.3607">
        <ele>75</ele>
        <time>2023-11-05T14:42:10Z</time>
      </trkpt>
      <trkpt lat="47.63813" lon="-2.36063">
        <ele>75</ele>
        <time>2023-11-05T14:42:36Z</time>
      </trkpt>
      <trkpt lat="47.63828" lon="-2.36041">
        <ele>76</ele>
        <time>2023-11-05T14:43:04Z</time>
      </trkpt>
      <trkpt lat="47.63815" lon="-2.3602">
        <ele>76</ele>
        <time>2023-11-05T14:43:30Z</time>
      </trkpt>
      <trkpt lat="47.63797" lon="-2.36032">
        <ele>75</ele>
        <time>2023-11-05T14:43:56Z</time>
      </trkpt>
      <trkpt lat="47.6376" lon="-2.36044">
        <ele>74</ele>
        <time>2023-11-05T14:44:47Z</time>
      </trkpt>
      <trkpt lat="47.63741" lon="-2.36029">
        <ele>72</ele>
        <time>2023-11-05T14:45:16Z</time>
      </trkpt>
      <trkpt lat="47.63728" lon="-2.36009">
        <ele>68</ele>
        <time>2023-11-05T14:45:41Z</time>
      </trkpt>
      <trkpt lat="47.63707" lon="-2.35997">
        <ele>64</ele>
        <time>2023-11-05T14:46:11Z</time>
      </trkpt>
      <trkpt lat="47.63696" lon="-2.35972">
        <ele>62</ele>
        <time>2023-11-05T14:46:37Z</time>
      </trkpt>
      <trkpt lat="47.63683" lon="-2.3595">
        <ele>60</ele>
        <time>2023-11-05T14:47:04Z</time>
      </trkpt>
      <trkpt lat="47.6361" lon="-2.359">
        <ele>48</ele>
        <time>2023-11-05T14:48:51Z</time>
      </trkpt>
      <trkpt lat="47.63592" lon="-2.35891">
        <ele>45</ele>
        <time>2023-11-05T14:49:16Z</time>
      </trkpt>
      <trkpt lat="47.6355" lon="-2.3588">
        <ele>43</ele>
        <time>2023-11-05T14:50:13Z</time>
      </trkpt>
      <trkpt lat="47.63537" lon="-2.35861">
        <ele>43</ele>
        <time>2023-11-05T14:50:38Z</time>
      </trkpt>
      <trkpt lat="47.63535" lon="-2.35707">
        <ele>52</ele>
        <time>2023-11-05T14:52:56Z</time>
      </trkpt>
      <trkpt lat="47.63537" lon="-2.35647">
        <ele>55</ele>
        <time>2023-11-05T14:53:50Z</time>
      </trkpt>
      <trkpt lat="47.63552" lon="-2.35624">
        <ele>56</ele>
        <time>2023-11-05T14:54:19Z</time>
      </trkpt>
      <trkpt lat="47.6356" lon="-2.35598">
        <ele>58</ele>
        <time>2023-11-05T14:54:45Z</time>
      </trkpt>
      <trkpt lat="47.6356" lon="-2.35502">
        <ele>59</ele>
        <time>2023-11-05T14:56:11Z</time>
      </trkpt>
      <trkpt lat="47.63545" lon="-2.35483">
        <ele>58</ele>
        <time>2023-11-05T14:56:37Z</time>
      </trkpt>
      <trkpt lat="47.63544" lon="-2.35452">
        <ele>59</ele>
        <time>2023-11-05T14:57:05Z</time>
      </trkpt>
      <trkpt lat="47.63549" lon="-2.35422">
        <ele>60</ele>
        <time>2023-11-05T14:57:33Z</time>
      </trkpt>
      <trkpt lat="47.63564" lon="-2.35404">
        <ele>61</ele>
        <time>2023-11-05T14:57:59Z</time>
      </trkpt>
      <trkpt lat="47.63583" lon="-2.35395">
        <ele>62</ele>
        <time>2023-11-05T14:58:25Z</time>
      </trkpt>
      <trkpt lat="47.63605" lon="-2.35396">
        <ele>64</ele>
        <time>2023-11-05T14:58:55Z</time>
      </trkpt>
      <trkpt lat="47.63624" lon="-2.35402">
        <ele>66</ele>
        <time>2023-11-05T14:59:21Z</time>
      </trkpt>
      <trkpt lat="47.63639" lon="-2.35421">
        <ele>68</ele>
        <time>2023-11-05T14:59:47Z</time>
      </trkpt>
      <trkpt lat="47.63658" lon="-2.35431">
        <ele>69</ele>
        <time>2023-11-05T15:00:14Z</time>
      </trkpt>
      <trkpt lat="47.63675" lon="-2.35423">
        <ele>71</ele>
        <time>2023-11-05T15:00:38Z</time>
      </trkpt>
      <trkpt lat="47.63691" lon="-2.35444">
        <ele>72</ele>
        <time>2023-11-05T15:01:06Z</time>
      </trkpt>
      <trkpt lat="47.63701" lon="-2.35469">
        <ele>73</ele>
        <time>2023-11-05T15:01:32Z</time>
      </trkpt>
      <trkpt lat="47.6374" lon="-2.35487">
        <ele>78</ele>
        <time>2023-11-05T15:02:27Z</time>
      </trkpt>
      <trkpt lat="47.63761" lon="-2.35487">
        <ele>79</ele>
        <time>2023-11-05T15:02:55Z</time>
      </trkpt>
      <trkpt lat="47.63771" lon="-2.35513">
        <ele>79</ele>
        <time>2023-11-05T15:03:22Z</time>
      </trkpt>
      <trkpt lat="47.63785" lon="-2.35536">
        <ele>78</ele>
        <time>2023-11-05T15:03:50Z</time>
      </trkpt>
      <trkpt lat="47.63803" lon="-2.35554">
        <ele>78</ele>
        <time>2023-11-05T15:04:19Z</time>
      </trkpt>
      <trkpt lat="47.63827" lon="-2.35557">
        <ele>79</ele>
        <time>2023-11-05T15:04:51Z</time>
      </trkpt>
      <trkpt lat="47.63848" lon="-2.35564">
        <ele>78</ele>
        <time>2023-11-05T15:05:19Z</time>
      </trkpt>
      <trkpt lat="47.63923" lon="-2.35611">
        <ele>75</ele>
        <time>2023-11-05T15:07:08Z</time>
      </trkpt>
      <trkpt lat="47.63944" lon="-2.3562">
        <ele>75</ele>
        <time>2023-11-05T15:07:37Z</time>
      </trkpt>
      <trkpt lat="47.63962" lon="-2.35624">
        <ele>74</ele>
        <time>2023-11-05T15:08:02Z</time>
      </trkpt>
      <trkpt lat="47.6398" lon="-2.35622">
        <ele>73</ele>
        <time>2023-11-05T15:08:26Z</time>
      </trkpt>
      <trkpt lat="47.64" lon="-2.35624">
        <ele>72</ele>
        <time>2023-11-05T15:08:52Z</time>
      </trkpt>
      <trkpt lat="47.64037" lon="-2.35616">
        <ele>73</ele>
        <time>2023-11-05T15:09:42Z</time>
      </trkpt>
      <trkpt lat="47.64092" lon="-2.3558">
        <ele>74</ele>
        <time>2023-11-05T15:11:03Z</time>
      </trkpt>
      <trkpt lat="47.64109" lon="-2.35564">
        <ele>74</ele>
        <time>2023-11-05T15:11:29Z</time>
      </trkpt>
      <trkpt lat="47.64129" lon="-2.35555">
        <ele>74</ele>
        <time>2023-11-05T15:11:57Z</time>
      </trkpt>
      <trkpt lat="47.64147" lon="-2.35571">
        <ele>75</ele>
        <time>2023-11-05T15:12:25Z</time>
      </trkpt>
      <trkpt lat="47.64165" lon="-2.35579">
        <ele>76</ele>
        <time>2023-11-05T15:12:50Z</time>
      </trkpt>
      <trkpt lat="47.64201" lon="-2.35604">
        <ele>77</ele>
        <time>2023-11-05T15:13:43Z</time>
      </trkpt>
      <trkpt lat="47.64221" lon="-2.35613">
        <ele>77</ele>
        <time>2023-11-05T15:14:11Z</time>
      </trkpt>
      <trkpt lat="47.64244" lon="-2.35612">
        <ele>77</ele>
        <time>2023-11-05T15:14:42Z</time>
      </trkpt>
      <trkpt lat="47.64264" lon="-2.35608">
        <ele>78</ele>
        <time>2023-11-05T15:15:09Z</time>
      </trkpt>
      <trkpt lat="47.64282" lon="-2.35601">
        <ele>78</ele>
        <time>2023-11-05T15:15:34Z</time>
      </trkpt>
      <trkpt lat="47.64354" lon="-2.35561">
        <ele>79</ele>
        <time>2023-11-05T15:17:16Z</time>
      </trkpt>
      <trkpt lat="47.64374" lon="-2.35563">
        <ele>79</ele>
        <time>2023-11-05T15:17:43Z</time>
      </trkpt>
      <trkpt lat="47.64429" lon="-2.35586">
        <ele>81</ele>
        <time>2023-11-05T15:18:59Z</time>
      </trkpt>
      <trkpt lat="47.64471" lon="-2.35598">
        <ele>81</ele>
        <time>2023-11-05T15:19:56Z</time>
      </trkpt>
      <trkpt lat="47.64489" lon="-2.35606">
        <ele>81</ele>
        <time>2023-11-05T15:20:21Z</time>
      </trkpt>
      <trkpt lat="47.6451" lon="-2.35609">
        <ele>81</ele>
        <time>2023-11-05T15:20:50Z</time>
      </trkpt>
      <trkpt lat="47.6453" lon="-2.35608">
        <ele>81</ele>
        <time>2023-11-05T15:21:16Z</time>
      </trkpt>
      <trkpt lat="47.64568" lon="-2.356">
        <ele>82</ele>
        <time>2023-11-05T15:22:08Z</time>
      </trkpt>
      <trkpt lat="47.64604" lon="-2.35587">
        <ele>82</ele>
        <time>2023-11-05T15:22:57Z</time>
      </trkpt>
      <trkpt lat="47.64625" lon="-2.35584">
        <ele>82</ele>
        <time>2023-11-05T15:23:25Z</time>
      </trkpt>
      <trkpt lat="47.64685" lon="-2.35585">
        <ele>82</ele>
        <time>2023-11-05T15:24:45Z</time>
      </trkpt>
      <trkpt lat="47.64705" lon="-2.35583">
        <ele>83</ele>
        <time>2023-11-05T15:25:12Z</time>
      </trkpt>
      <trkpt lat="47.64765" lon="-2.35589">
        <ele>84</ele>
        <time>2023-11-05T15:26:32Z</time>
      </trkpt>
      <trkpt lat="47.6481" lon="-2.35587">
        <ele>85</ele>
        <time>2023-11-05T15:27:32Z</time>
      </trkpt>
      <trkpt lat="47.64831" lon="-2.35592">
        <ele>85</ele>
        <time>2023-11-05T15:28:01Z</time>
      </trkpt>
      <trkpt lat="47.64853" lon="-2.35592">
        <ele>85</ele>
        <time>2023-11-05T15:28:30Z</time>
      </trkpt>
      <trkpt lat="47.64874" lon="-2.35595">
        <ele>85</ele>
        <time>2023-11-05T15:28:58Z</time>
      </trkpt>
      <trkpt lat="47.64913" lon="-2.35604">
        <ele>85</ele>
        <time>2023-11-05T15:29:51Z</time>
      </trkpt>
      <trkpt lat="47.64932" lon="-2.35611">
        <ele>85</ele>
        <time>2023-11-05T15:30:17Z</time>
      </trkpt>
      <trkpt lat="47.64955" lon="-2.35608">
        <ele>85</ele>
        <time>2023-11-05T15:30:48Z</time>
      </trkpt>
      <trkpt lat="47.64996" lon="-2.35607">
        <ele>84</ele>
        <time>2023-11-05T15:31:43Z</time>
      </trkpt>
      <trkpt lat="47.65059" lon="-2.35621">
        <ele>82</ele>
        <time>2023-11-05T15:33:08Z</time>
      </trkpt>
      <trkpt lat="47.65078" lon="-2.35623">
        <ele>81</ele>
        <time>2023-11-05T15:33:33Z</time>
      </trkpt>
      <trkpt lat="47.65096" lon="-2.35613">
        <ele>81</ele>
        <time>2023-11-05T15:33:59Z</time>
      </trkpt>
      <trkpt lat="47.65139" lon="-2.35617">
        <ele>80</ele>
        <time>2023-11-05T15:34:56Z</time>
      </trkpt>
      <trkpt lat="47.65179" lon="-2.35627">
        <ele>77</ele>
        <time>2023-11-05T15:35:50Z</time>
      </trkpt>
      <trkpt lat="47.65195" lon="-2.35615">
        <ele>75</ele>
        <time>2023-11-05T15:36:14Z</time>
      </trkpt>
      <trkpt lat="47.65217" lon="-2.35628">
        <ele>72</ele>
        <time>2023-11-05T15:36:46Z</time>
      </trkpt>
      <trkpt lat="47.65239" lon="-2.35631">
        <ele>70</ele>
        <time>2023-11-05T15:37:15Z</time>
      </trkpt>
      <trkpt lat="47.65263" lon="-2.35625">
        <ele>67</ele>
        <time>2023-11-05T15:37:48Z</time>
      </trkpt>
      <trkpt lat="47.65279" lon="-2.3561">
        <ele>66</ele>
        <time>2023-11-05T15:38:13Z</time>
      </trkpt>
      <trkpt lat="47.65281" lon="-2.35575">
        <ele>66</ele>
        <time>2023-11-05T15:38:45Z</time>
      </trkpt>
      <trkpt lat="47.65287" lon="-2.35545">
        <ele>67</ele>
        <time>2023-11-05T15:39:13Z</time>
      </trkpt>
      <trkpt lat="47.65304" lon="-2.35531">
        <ele>66</ele>
        <time>2023-11-05T15:39:39Z</time>
      </trkpt>
      <trkpt lat="47.65325" lon="-2.35521">
        <ele>64</ele>
        <time>2023-11-05T15:40:08Z</time>
      </trkpt>
      <trkpt lat="47.65345" lon="-2.35517">
        <ele>65</ele>
        <time>2023-11-05T15:40:35Z</time>
      </trkpt>
      <trkpt lat="47.65363" lon="-2.35535">
        <ele>66</ele>
        <time>2023-11-05T15:41:04Z</time>
      </trkpt>
      <trkpt lat="47.65373" lon="-2.3556">
        <ele>67</ele>
        <time>2023-11-05T15:41:30Z</time>
      </trkpt>
      <trkpt lat="47.65364" lon="-2.35534">
        <ele>67</ele>
        <time>2023-11-05T15:41:56Z</time>
      </trkpt>
      <trkpt lat="47.65343" lon="-2.35525">
        <ele>64</ele>
        <time>2023-11-05T15:42:25Z</time>
      </trkpt>
      <trkpt lat="47.65303" lon="-2.35535">
        <ele>66</ele>
        <time>2023-11-05T15:43:20Z</time>
      </trkpt>
      <trkpt lat="47.65293" lon="-2.35508">
        <ele>68</ele>
        <time>2023-11-05T15:43:47Z</time>
      </trkpt>
      <trkpt lat="47.65296" lon="-2.35446">
        <ele>70</ele>
        <time>2023-11-05T15:44:43Z</time>
      </trkpt>
      <trkpt lat="47.65287" lon="-2.35384">
        <ele>71</ele>
        <time>2023-11-05T15:45:40Z</time>
      </trkpt>
      <trkpt lat="47.65287" lon="-2.35354">
        <ele>71</ele>
        <time>2023-11-05T15:46:07Z</time>
      </trkpt>
      <trkpt lat="47.65284" lon="-2.35326">
        <ele>71</ele>
        <time>2023-11-05T15:46:33Z</time>
      </trkpt>
      <trkpt lat="47.65274" lon="-2.35269">
        <ele>71</ele>
        <time>2023-11-05T15:47:26Z</time>
      </trkpt>
      <trkpt lat="47.65248" lon="-2.35226">
        <ele>72</ele>
        <time>2023-11-05T15:48:18Z</time>
      </trkpt>
      <trkpt lat="47.65251" lon="-2.35168">
        <ele>69</ele>
        <time>2023-11-05T15:49:10Z</time>
      </trkpt>
      <trkpt lat="47.65245" lon="-2.3508">
        <ele>64</ele>
        <time>2023-11-05T15:50:29Z</time>
      </trkpt>
      <trkpt lat="47.65249" lon="-2.35015">
        <ele>62</ele>
        <time>2023-11-05T15:51:28Z</time>
      </trkpt>
      <trkpt lat="47.65241" lon="-2.34983">
        <ele>62</ele>
        <time>2023-11-05T15:51:59Z</time>
      </trkpt>
      <trkpt lat="47.65226" lon="-2.34962">
        <ele>64</ele>
        <time>2023-11-05T15:52:26Z</time>
      </trkpt>
      <trkpt lat="47.65208" lon="-2.34945">
        <ele>65</ele>
        <time>2023-11-05T15:52:55Z</time>
      </trkpt>
      <trkpt lat="47.65189" lon="-2.34942">
        <ele>66</ele>
        <time>2023-11-05T15:53:20Z</time>
      </trkpt>
      <trkpt lat="47.65181" lon="-2.3491">
        <ele>67</ele>
        <time>2023-11-05T15:53:51Z</time>
      </trkpt>
      <trkpt lat="47.65175" lon="-2.34845">
        <ele>69</ele>
        <time>2023-11-05T15:54:50Z</time>
      </trkpt>
      <trkpt lat="47.65165" lon="-2.3479">
        <ele>72</ele>
        <time>2023-11-05T15:55:41Z</time>
      </trkpt>
      <trkpt lat="47.65154" lon="-2.34672">
        <ele>71</ele>
        <time>2023-11-05T15:57:28Z</time>
      </trkpt>
      <trkpt lat="47.65149" lon="-2.3464">
        <ele>70</ele>
        <time>2023-11-05T15:57:58Z</time>
      </trkpt>
      <trkpt lat="47.65107" lon="-2.34477">
        <ele>67</ele>
        <time>2023-11-05T16:00:35Z</time>
      </trkpt>
      <trkpt lat="47.65092" lon="-2.34358">
        <ele>67</ele>
        <time>2023-11-05T16:02:23Z</time>
      </trkpt>
      <trkpt lat="47.65075" lon="-2.34346">
        <ele>68</ele>
        <time>2023-11-05T16:02:49Z</time>
      </trkpt>
      <trkpt lat="47.65034" lon="-2.34346">
        <ele>69</ele>
        <time>2023-11-05T16:03:43Z</time>
      </trkpt>
      <trkpt lat="47.64994" lon="-2.34349">
        <ele>70</ele>
        <time>2023-11-05T16:04:37Z</time>
      </trkpt>
      <trkpt lat="47.64975" lon="-2.34339">
        <ele>70</ele>
        <time>2023-11-05T16:05:04Z</time>
      </trkpt>
      <trkpt lat="47.64971" lon="-2.34313">
        <ele>70</ele>
        <time>2023-11-05T16:05:28Z</time>
      </trkpt>
      <trkpt lat="47.6497" lon="-2.34253">
        <ele>70</ele>
        <time>2023-11-05T16:06:22Z</time>
      </trkpt>
      <trkpt lat="47.64963" lon="-2.34166">
        <ele>68</ele>
        <time>2023-11-05T16:07:40Z</time>
      </trkpt>
      <trkpt lat="47.6495" lon="-2.34146">
        <ele>68</ele>
        <time>2023-11-05T16:08:05Z</time>
      </trkpt>
      <trkpt lat="47.64935" lon="-2.3413">
        <ele>69</ele>
        <time>2023-11-05T16:08:30Z</time>
      </trkpt>
      <trkpt lat="47.64917" lon="-2.34119">
        <ele>69</ele>
        <time>2023-11-05T16:08:56Z</time>
      </trkpt>
      <trkpt lat="47.64902" lon="-2.34099">
        <ele>69</ele>
        <time>2023-11-05T16:09:23Z</time>
      </trkpt>
      <trkpt lat="47.64884" lon="-2.34087">
        <ele>69</ele>
        <time>2023-11-05T16:09:49Z</time>
      </trkpt>
      <trkpt lat="47.64832" lon="-2.3404">
        <ele>68</ele>
        <time>2023-11-05T16:11:10Z</time>
      </trkpt>
      <trkpt lat="47.64813" lon="-2.34032">
        <ele>67</ele>
        <time>2023-11-05T16:11:37Z</time>
      </trkpt>
      <trkpt lat="47.64798" lon="-2.34047">
        <ele>67</ele>
        <time>2023-11-05T16:12:01Z</time>
      </trkpt>
      <trkpt lat="47.64791" lon="-2.34075">
        <ele>68</ele>
        <time>2023-11-05T16:12:28Z</time>
      </trkpt>
      <trkpt lat="47.64779" lon="-2.34095">
        <ele>68</ele>
        <time>2023-11-05T16:12:52Z</time>
      </trkpt>
      <trkpt lat="47.64756" lon="-2.34098">
        <ele>66</ele>
        <time>2023-11-05T16:13:23Z</time>
      </trkpt>
      <trkpt lat="47.64737" lon="-2.34092">
        <ele>65</ele>
        <time>2023-11-05T16:13:49Z</time>
      </trkpt>
      <trkpt lat="47.64718" lon="-2.34081">
        <ele>65</ele>
        <time>2023-11-05T16:14:16Z</time>
      </trkpt>
      <trkpt lat="47.64678" lon="-2.34065">
        <ele>64</ele>
        <time>2023-11-05T16:15:11Z</time>
      </trkpt>
      <trkpt lat="47.64658" lon="-2.3405">
        <ele>64</ele>
        <time>2023-11-05T16:15:41Z</time>
      </trkpt>
      <trkpt lat="47.64638" lon="-2.34045">
        <ele>64</ele>
        <time>2023-11-05T16:16:08Z</time>
      </trkpt>
      <trkpt lat="47.64628" lon="-2.34068">
        <ele>65</ele>
        <time>2023-11-05T16:16:33Z</time>
      </trkpt>
      <trkpt lat="47.64621" lon="-2.34126">
        <ele>67</ele>
        <time>2023-11-05T16:17:26Z</time>
      </trkpt>
      <trkpt lat="47.64603" lon="-2.34128">
        <ele>67</ele>
        <time>2023-11-05T16:17:50Z</time>
      </trkpt>
      <trkpt lat="47.64596" lon="-2.34094">
        <ele>67</ele>
        <time>2023-11-05T16:18:22Z</time>
      </trkpt>
      <trkpt lat="47.64595" lon="-2.34037">
        <ele>64</ele>
        <time>2023-11-05T16:19:13Z</time>
      </trkpt>
      <trkpt lat="47.64579" lon="-2.34016">
        <ele>62</ele>
        <time>2023-11-05T16:19:41Z</time>
      </trkpt>
      <trkpt lat="47.6454" lon="-2.33989">
        <ele>62</ele>
        <time>2023-11-05T16:20:39Z</time>
      </trkpt>
      <trkpt lat="47.64518" lon="-2.33994">
        <ele>63</ele>
        <time>2023-11-05T16:21:09Z</time>
      </trkpt>
      <trkpt lat="47.64469" lon="-2.34041">
        <ele>66</ele>
        <time>2023-11-05T16:22:26Z</time>
      </trkpt>
      <trkpt lat="47.6445" lon="-2.34053">
        <ele>66</ele>
        <time>2023-11-05T16:22:54Z</time>
      </trkpt>
      <trkpt lat="47.64435" lon="-2.34068">
        <ele>66</ele>
        <time>2023-11-05T16:23:18Z</time>
      </trkpt>
      <trkpt lat="47.64415" lon="-2.34071">
        <ele>65</ele>
        <time>2023-11-05T16:23:45Z</time>
      </trkpt>
      <trkpt lat="47.64395" lon="-2.34066">
        <ele>65</ele>
        <time>2023-11-05T16:24:12Z</time>
      </trkpt>
      <trkpt lat="47.64365" lon="-2.34023">
        <ele>64</ele>
        <time>2023-11-05T16:25:08Z</time>
      </trkpt>
      <trkpt lat="47.64354" lon="-2.34">
        <ele>64</ele>
        <time>2023-11-05T16:25:33Z</time>
      </trkpt>
      <trkpt lat="47.64336" lon="-2.33981">
        <ele>63</ele>
        <time>2023-11-05T16:26:02Z</time>
      </trkpt>
      <trkpt lat="47.64328" lon="-2.3395">
        <ele>61</ele>
        <time>2023-11-05T16:26:32Z</time>
      </trkpt>
      <trkpt lat="47.64321" lon="-2.3389">
        <ele>57</ele>
        <time>2023-11-05T16:27:27Z</time>
      </trkpt>
      <trkpt lat="47.64302" lon="-2.33884">
        <ele>56</ele>
        <time>2023-11-05T16:27:53Z</time>
      </trkpt>
      <trkpt lat="47.64278" lon="-2.33891">
        <ele>57</ele>
        <time>2023-11-05T16:28:26Z</time>
      </trkpt>
      <trkpt lat="47.64258" lon="-2.3389">
        <ele>57</ele>
        <time>2023-11-05T16:28:52Z</time>
      </trkpt>
      <trkpt lat="47.64238" lon="-2.33881">
        <ele>57</ele>
        <time>2023-11-05T16:29:20Z</time>
      </trkpt>
      <trkpt lat="47.64218" lon="-2.33888">
        <ele>58</ele>
        <time>2023-11-05T16:29:48Z</time>
      </trkpt>
      <trkpt lat="47.64197" lon="-2.33903">
        <ele>59</ele>
        <time>2023-11-05T16:30:19Z</time>
      </trkpt>
      <trkpt lat="47.64185" lon="-2.33923">
        <ele>61</ele>
        <time>2023-11-05T16:30:43Z</time>
      </trkpt>
      <trkpt lat="47.64151" lon="-2.33953">
        <ele>64</ele>
        <time>2023-11-05T16:31:36Z</time>
      </trkpt>
      <trkpt lat="47.64133" lon="-2.33944">
        <ele>64</ele>
        <time>2023-11-05T16:32:01Z</time>
      </trkpt>
      <trkpt lat="47.64167" lon="-2.33865">
        <ele>58</ele>
        <time>2023-11-05T16:33:25Z</time>
      </trkpt>
      <trkpt lat="47.64185" lon="-2.33812">
        <ele>54</ele>
        <time>2023-11-05T16:34:19Z</time>
      </trkpt>
      <trkpt lat="47.64185" lon="-2.33784">
        <ele>54</ele>
        <time>2023-11-05T16:34:44Z</time>
      </trkpt>
      <trkpt lat="47.64193" lon="-2.33723">
        <ele>53</ele>
        <time>2023-11-05T16:35:40Z</time>
      </trkpt>
      <trkpt lat="47.64179" lon="-2.3367">
        <ele>50</ele>
        <time>2023-11-05T16:36:31Z</time>
      </trkpt>
      <trkpt lat="47.64161" lon="-2.3367">
        <ele>48</ele>
        <time>2023-11-05T16:36:55Z</time>
      </trkpt>
      <trkpt lat="47.64147" lon="-2.33693">
        <ele>50</ele>
        <time>2023-11-05T16:37:23Z</time>
      </trkpt>
      <trkpt lat="47.64129" lon="-2.33697">
        <ele>51</ele>
        <time>2023-11-05T16:37:47Z</time>
      </trkpt>
      <trkpt lat="47.64087" lon="-2.337">
        <ele>53</ele>
        <time>2023-11-05T16:38:43Z</time>
      </trkpt>
      <trkpt lat="47.64064" lon="-2.33691">
        <ele>53</ele>
        <time>2023-11-05T16:39:15Z</time>
      </trkpt>
      <trkpt lat="47.64046" lon="-2.33679">
        <ele>52</ele>
        <time>2023-11-05T16:39:41Z</time>
      </trkpt>
      <trkpt lat="47.64028" lon="-2.33665">
        <ele>51</ele>
        <time>2023-11-05T16:40:08Z</time>
      </trkpt>
      <trkpt lat="47.63997" lon="-2.33629">
        <ele>48</ele>
        <time>2023-11-05T16:41:01Z</time>
      </trkpt>
      <trkpt lat="47.63956" lon="-2.33606">
        <ele>46</ele>
        <time>2023-11-05T16:41:59Z</time>
      </trkpt>
      <trkpt lat="47.6394" lon="-2.3362">
        <ele>47</ele>
        <time>2023-11-05T16:42:24Z</time>
      </trkpt>
      <trkpt lat="47.6392" lon="-2.33628">
        <ele>48</ele>
        <time>2023-11-05T16:42:52Z</time>
      </trkpt>
      <trkpt lat="47.63902" lon="-2.33639">
        <ele>49</ele>
        <time>2023-11-05T16:43:18Z</time>
      </trkpt>
      <trkpt lat="47.63887" lon="-2.33655">
        <ele>49</ele>
        <time>2023-11-05T16:43:42Z</time>
      </trkpt>
      <trkpt lat="47.63865" lon="-2.33663">
        <ele>49</ele>
        <time>2023-11-05T16:44:13Z</time>
      </trkpt>
      <trkpt lat="47.63821" lon="-2.33663">
        <ele>46</ele>
        <time>2023-11-05T16:45:11Z</time>
      </trkpt>
      <trkpt lat="47.63802" lon="-2.33669">
        <ele>45</ele>
        <time>2023-11-05T16:45:37Z</time>
      </trkpt>
      <trkpt lat="47.63789" lon="-2.33692">
        <ele>47</ele>
        <time>2023-11-05T16:46:04Z</time>
      </trkpt>
      <trkpt lat="47.63768" lon="-2.337">
        <ele>46</ele>
        <time>2023-11-05T16:46:33Z</time>
      </trkpt>
      <trkpt lat="47.6375" lon="-2.337">
        <ele>44</ele>
        <time>2023-11-05T16:46:57Z</time>
      </trkpt>
      <trkpt lat="47.63732" lon="-2.33715">
        <ele>45</ele>
        <time>2023-11-05T16:47:25Z</time>
      </trkpt>
      <trkpt lat="47.63696" lon="-2.33781">
        <ele>47</ele>
        <time>2023-11-05T16:48:41Z</time>
      </trkpt>
      <trkpt lat="47.63627" lon="-2.33834">
        <ele>44</ele>
        <time>2023-11-05T16:50:25Z</time>
      </trkpt>
      <trkpt lat="47.63588" lon="-2.33853">
        <ele>42</ele>
        <time>2023-11-05T16:51:20Z</time>
      </trkpt>
      <trkpt lat="47.63569" lon="-2.33869">
        <ele>41</ele>
        <time>2023-11-05T16:51:49Z</time>
      </trkpt>
      <trkpt lat="47.63548" lon="-2.33879">
        <ele>37</ele>
        <time>2023-11-05T16:52:18Z</time>
      </trkpt>
      <trkpt lat="47.6351" lon="-2.33908">
        <ele>30</ele>
        <time>2023-11-05T16:53:15Z</time>
      </trkpt>
      <trkpt lat="47.63499" lon="-2.33933">
        <ele>30</ele>
        <time>2023-11-05T16:53:42Z</time>
      </trkpt>
      <trkpt lat="47.63486" lon="-2.33955">
        <ele>31</ele>
        <time>2023-11-05T16:54:08Z</time>
      </trkpt>
      <trkpt lat="47.63478" lon="-2.33978">
        <ele>33</ele>
        <time>2023-11-05T16:54:32Z</time>
      </trkpt>
      <trkpt lat="47.63478" lon="-2.34006">
        <ele>36</ele>
        <time>2023-11-05T16:54:57Z</time>
      </trkpt>
      <trkpt lat="47.63486" lon="-2.34036">
        <ele>38</ele>
        <time>2023-11-05T16:55:26Z</time>
      </trkpt>
      <trkpt lat="47.63497" lon="-2.34065">
        <ele>40</ele>
        <time>2023-11-05T16:55:56Z</time>
      </trkpt>
      <trkpt lat="47.63502" lon="-2.34097">
        <ele>40</ele>
        <time>2023-11-05T16:56:25Z</time>
      </trkpt>
      <trkpt lat="47.63516" lon="-2.34155">
        <ele>39</ele>
        <time>2023-11-05T16:57:21Z</time>
      </trkpt>
      <trkpt lat="47.63518" lon="-2.34185">
        <ele>38</ele>
        <time>2023-11-05T16:57:48Z</time>
      </trkpt>
      <trkpt lat="47.63548" lon="-2.34308">
        <ele>38</ele>
        <time>2023-11-05T16:59:45Z</time>
      </trkpt>
      <trkpt lat="47.63552" lon="-2.34335">
        <ele>38</ele>
        <time>2023-11-05T17:00:10Z</time>
      </trkpt>
      <trkpt lat="47.63597" lon="-2.3448">
        <ele>47</ele>
        <time>2023-11-05T17:02:34Z</time>
      </trkpt>
      <trkpt lat="47.63607" lon="-2.34503">
        <ele>49</ele>
        <time>2023-11-05T17:02:58Z</time>
      </trkpt>
      <trkpt lat="47.63649" lon="-2.3463">
        <ele>52</ele>
        <time>2023-11-05T17:05:06Z</time>
      </trkpt>
      <trkpt lat="47.63659" lon="-2.34654">
        <ele>52</ele>
        <time>2023-11-05T17:05:31Z</time>
      </trkpt>
      <trkpt lat="47.63642" lon="-2.34676">
        <ele>48</ele>
        <time>2023-11-05T17:06:01Z</time>
      </trkpt>
      <trkpt lat="47.63634" lon="-2.34706">
        <ele>45</ele>
        <time>2023-11-05T17:06:30Z</time>
      </trkpt>
      <trkpt lat="47.63632" lon="-2.34739">
        <ele>44</ele>
        <time>2023-11-05T17:07:00Z</time>
      </trkpt>
      <trkpt lat="47.6364" lon="-2.34767">
        <ele>44</ele>
        <time>2023-11-05T17:07:27Z</time>
      </trkpt>
      <trkpt lat="47.63639" lon="-2.34797">
        <ele>42</ele>
        <time>2023-11-05T17:07:54Z</time>
      </trkpt>
      <trkpt lat="47.63645" lon="-2.34823">
        <ele>42</ele>
        <time>2023-11-05T17:08:19Z</time>
      </trkpt>
      <trkpt lat="47.63662" lon="-2.3484">
        <ele>44</ele>
        <time>2023-11-05T17:08:46Z</time>
      </trkpt>
      <trkpt lat="47.63659" lon="-2.34871">
        <ele>44</ele>
        <time>2023-11-05T17:09:14Z</time>
      </trkpt>
      <trkpt lat="47.63669" lon="-2.34899">
        <ele>45</ele>
        <time>2023-11-05T17:09:43Z</time>
      </trkpt>
      <trkpt lat="47.63684" lon="-2.3492">
        <ele>47</ele>
        <time>2023-11-05T17:10:10Z</time>
      </trkpt>
      <trkpt lat="47.63703" lon="-2.3493">
        <ele>50</ele>
        <time>2023-11-05T17:10:37Z</time>
      </trkpt>
      <trkpt lat="47.63712" lon="-2.34959">
        <ele>52</ele>
        <time>2023-11-05T17:11:06Z</time>
      </trkpt>
      <trkpt lat="47.63744" lon="-2.34994">
        <ele>56</ele>
        <time>2023-11-05T17:11:59Z</time>
      </trkpt>
      <trkpt lat="47.63758" lon="-2.35018">
        <ele>57</ele>
        <time>2023-11-05T17:12:28Z</time>
      </trkpt>
      <trkpt lat="47.63774" lon="-2.35034">
        <ele>58</ele>
        <time>2023-11-05T17:12:53Z</time>
      </trkpt>
      <trkpt lat="47.63794" lon="-2.35045">
        <ele>59</ele>
        <time>2023-11-05T17:13:22Z</time>
      </trkpt>
      <trkpt lat="47.63812" lon="-2.35066">
        <ele>59</ele>
        <time>2023-11-05T17:13:52Z</time>
      </trkpt>
      <trkpt lat="47.63826" lon="-2.3509">
        <ele>58</ele>
        <time>2023-11-05T17:14:21Z</time>
      </trkpt>
      <trkpt lat="47.63833" lon="-2.35116">
        <ele>59</ele>
        <time>2023-11-05T17:14:46Z</time>
      </trkpt>
      <trkpt lat="47.63845" lon="-2.35139">
        <ele>60</ele>
        <time>2023-11-05T17:15:12Z</time>
      </trkpt>
      <trkpt lat="47.63848" lon="-2.35171">
        <ele>61</ele>
        <time>2023-11-05T17:15:41Z</time>
      </trkpt>
      <trkpt lat="47.63832" lon="-2.35191">
        <ele>62</ele>
        <time>2023-11-05T17:16:09Z</time>
      </trkpt>
      <trkpt lat="47.63795" lon="-2.35213">
        <ele>66</ele>
        <time>2023-11-05T17:17:02Z</time>
      </trkpt>
      <trkpt lat="47.63778" lon="-2.35228">
        <ele>67</ele>
        <time>2023-11-05T17:17:29Z</time>
      </trkpt>
      <trkpt lat="47.6375" lon="-2.35278">
        <ele>70</ele>
        <time>2023-11-05T17:18:27Z</time>
      </trkpt>
      <trkpt lat="47.63735" lon="-2.35296">
        <ele>69</ele>
        <time>2023-11-05T17:18:53Z</time>
      </trkpt>
      <trkpt lat="47.63721" lon="-2.3532">
        <ele>69</ele>
        <time>2023-11-05T17:19:22Z</time>
      </trkpt>
      <trkpt lat="47.63703" lon="-2.35336">
        <ele>69</ele>
        <time>2023-11-05T17:19:50Z</time>
      </trkpt>
      <trkpt lat="47.63664" lon="-2.35339">
        <ele>66</ele>
        <time>2023-11-05T17:20:42Z</time>
      </trkpt>
      <trkpt lat="47.63643" lon="-2.35345">
        <ele>65</ele>
        <time>2023-11-05T17:21:10Z</time>
      </trkpt>
      <trkpt lat="47.63621" lon="-2.35358">
        <ele>64</ele>
        <time>2023-11-05T17:21:42Z</time>
      </trkpt>
      <trkpt lat="47.63615" lon="-2.3533">
        <ele>62</ele>
        <time>2023-11-05T17:22:08Z</time>
      </trkpt>
    </trkseg>
  </trk>
</gpx>